createdAt,value
2017-02-22T00:00:37.552Z,7.91
2017-02-22T00:01:37.559Z,7.93
2017-02-22T00:02:37.582Z,7.9
2017-02-22T00:03:37.588Z,7.94
2017-02-22T00:04:37.618Z,7.95
2017-02-22T00:05:37.624Z,7.93
2017-02-22T00:06:37.634Z,7.83
2017-02-22T00:07:37.652Z,7.95
2017-02-22T00:08:37.679Z,7.85
2017-02-22T00:09:37.840Z,7.85
2017-02-22T00:10:37.690Z,7.93
2017-02-22T00:11:37.706Z,7.93
2017-02-22T00:12:37.711Z,7.8
2017-02-22T00:13:37.733Z,7.9
2017-02-22T00:14:37.747Z,7.77
2017-02-22T00:15:37.766Z,7.88
2017-02-22T00:16:37.770Z,7.77
2017-02-22T00:17:37.782Z,7.93
2017-02-22T00:18:37.801Z,7.79
2017-02-22T00:19:37.813Z,7.94
2017-02-22T00:20:37.830Z,7.79
2017-02-22T00:21:37.834Z,7.76
2017-02-22T00:22:38.018Z,7.79
2017-02-22T00:23:37.873Z,7.77
2017-02-22T00:24:37.883Z,7.83
2017-02-22T00:25:37.892Z,7.77
2017-02-22T00:26:37.907Z,7.83
2017-02-22T00:27:37.928Z,7.79
2017-02-22T00:28:37.944Z,7.79
2017-02-22T00:29:37.951Z,7.8
2017-02-22T00:30:37.959Z,7.76
2017-02-22T00:31:37.975Z,7.79
2017-02-22T00:32:37.986Z,7.79
2017-02-22T00:33:38.014Z,7.82
2017-02-22T00:34:38.030Z,7.83
2017-02-22T00:35:38.024Z,7.69
2017-02-22T00:36:38.038Z,7.79
2017-02-22T00:37:38.047Z,7.82
2017-02-22T00:38:38.063Z,7.75
2017-02-22T00:39:38.101Z,7.75
2017-02-22T00:40:38.091Z,7.75
2017-02-22T00:41:38.116Z,7.79
2017-02-22T00:42:38.129Z,7.79
2017-02-22T00:43:38.133Z,7.82
2017-02-22T00:44:38.148Z,7.69
2017-02-22T00:45:37.365Z,7.75
2017-02-22T00:46:38.176Z,7.67
2017-02-22T00:47:38.185Z,7.67
2017-02-22T00:48:38.198Z,7.69
2017-02-22T00:49:38.218Z,7.73
2017-02-22T00:50:38.220Z,7.7
2017-02-22T00:51:38.244Z,7.72
2017-02-22T00:52:38.253Z,7.66
2017-02-22T00:53:38.267Z,7.7
2017-02-22T00:54:38.304Z,7.75
2017-02-22T00:55:38.296Z,7.69
2017-02-22T00:56:38.308Z,7.67
2017-02-22T00:57:38.323Z,7.69
2017-02-22T00:58:38.334Z,7.67
2017-02-22T00:59:38.351Z,7.7
2017-02-22T01:00:38.381Z,7.72
2017-02-22T01:01:38.377Z,7.79
2017-02-22T01:02:38.395Z,7.69
2017-02-22T01:03:38.404Z,7.7
2017-02-22T01:04:38.418Z,7.7
2017-02-22T01:05:38.443Z,7.72
2017-02-22T01:06:38.462Z,7.73
2017-02-22T01:07:38.468Z,7.69
2017-02-22T01:08:38.474Z,7.76
2017-02-22T01:09:38.477Z,7.8
2017-02-22T01:10:38.496Z,7.73
2017-02-22T01:11:38.534Z,7.72
2017-02-22T01:12:38.533Z,7.76
2017-02-22T01:13:38.542Z,7.87
2017-02-22T01:14:38.566Z,7.75
2017-02-22T01:15:38.628Z,7.77
2017-02-22T01:16:38.577Z,7.82
2017-02-22T01:17:38.590Z,7.8
2017-02-22T01:18:38.616Z,7.8
2017-02-22T01:19:38.618Z,7.79
2017-02-22T01:20:38.635Z,7.8
2017-02-22T01:21:38.642Z,7.82
2017-02-22T01:22:38.661Z,7.83
2017-02-22T01:23:38.674Z,7.79
2017-02-22T01:24:38.685Z,7.79
2017-02-22T01:25:38.695Z,7.79
2017-02-22T01:26:38.709Z,7.79
2017-02-22T01:27:38.721Z,7.82
2017-02-22T01:28:38.749Z,7.82
2017-02-22T01:29:38.758Z,7.79
2017-02-22T01:30:38.869Z,7.76
2017-02-22T01:31:38.878Z,7.79
2017-02-22T01:32:38.780Z,7.82
2017-02-22T01:33:38.800Z,7.85
2017-02-22T01:34:38.812Z,7.8
2017-02-22T01:35:38.833Z,7.82
2017-02-22T01:36:38.855Z,7.91
2017-02-22T01:37:38.842Z,7.87
2017-02-22T01:38:38.984Z,7.95
2017-02-22T01:39:38.983Z,7.85
2017-02-22T01:40:39.054Z,7.9
2017-02-22T01:41:39.015Z,7.91
2017-02-22T01:42:39.030Z,7.87
2017-02-22T01:43:38.937Z,7.91
2017-02-22T01:44:38.945Z,7.91
2017-02-22T01:45:38.960Z,7.95
2017-02-22T01:46:38.970Z,7.93
2017-02-22T01:47:38.980Z,7.94
2017-02-22T01:48:39.004Z,7.97
2017-02-22T01:49:39.151Z,7.95
2017-02-22T01:50:39.033Z,7.95
2017-02-22T01:51:39.053Z,8
2017-02-22T01:52:39.045Z,7.98
2017-02-22T01:53:39.091Z,8.06
2017-02-22T01:54:39.085Z,8.05
2017-02-22T01:55:39.209Z,7.98
2017-02-22T01:56:39.204Z,7.94
2017-02-22T01:57:39.226Z,7.94
2017-02-22T01:58:39.129Z,7.98
2017-02-22T01:59:39.263Z,8.03
2017-02-22T02:00:39.167Z,8.05
2017-02-22T02:01:39.173Z,8.08
2017-02-22T02:02:39.323Z,8.09
2017-02-22T02:03:39.205Z,8.05
2017-02-22T02:04:39.209Z,8.05
2017-02-22T02:05:39.233Z,8.05
2017-02-22T02:06:39.240Z,8.1
2017-02-22T02:07:39.263Z,8.12
2017-02-22T02:08:39.267Z,8.01
2017-02-22T02:09:39.282Z,8.08
2017-02-22T02:10:39.287Z,8.13
2017-02-22T02:11:39.311Z,8.19
2017-02-22T02:12:39.317Z,8.08
2017-02-22T02:13:39.347Z,8.12
2017-02-22T02:14:39.342Z,8.12
2017-02-22T02:15:39.376Z,8.09
2017-02-22T02:16:39.368Z,8.1
2017-02-22T02:17:39.387Z,8.13
2017-02-22T02:18:39.402Z,8.13
2017-02-22T02:19:39.416Z,8.12
2017-02-22T02:20:39.423Z,8.15
2017-02-22T02:21:39.448Z,8.18
2017-02-22T02:22:39.450Z,8.19
2017-02-22T02:23:39.473Z,8.12
2017-02-22T02:24:39.475Z,8.2
2017-02-22T02:25:39.497Z,8.16
2017-02-22T02:26:39.505Z,8.24
2017-02-22T02:27:39.540Z,8.18
2017-02-22T02:28:39.529Z,8.2
2017-02-22T02:29:39.631Z,8.26
2017-02-22T02:30:39.580Z,8.18
2017-02-22T02:31:39.580Z,8.13
2017-02-22T02:32:39.585Z,8.27
2017-02-22T02:33:39.600Z,8.2
2017-02-22T02:34:39.622Z,8.23
2017-02-22T02:35:39.774Z,8.2
2017-02-22T02:36:39.774Z,8.2
2017-02-22T02:37:39.866Z,8.33
2017-02-22T02:38:39.793Z,8.36
2017-02-22T02:39:39.684Z,8.3
2017-02-22T02:40:39.701Z,8.36
2017-02-22T02:41:39.322Z,8.33
2017-02-22T02:42:39.742Z,8.31
2017-02-22T02:43:39.751Z,8.33
2017-02-22T02:44:39.751Z,8.34
2017-02-22T02:45:39.766Z,8.34
2017-02-22T02:46:39.778Z,8.37
2017-02-22T02:47:39.906Z,8.37
2017-02-22T02:48:39.412Z,8.38
2017-02-22T02:49:39.828Z,8.38
2017-02-22T02:50:39.948Z,8.36
2017-02-22T02:51:39.967Z,8.38
2017-02-22T02:52:39.863Z,8.31
2017-02-22T02:53:39.872Z,8.41
2017-02-22T02:54:39.907Z,8.41
2017-02-22T02:55:39.911Z,8.44
2017-02-22T02:56:39.912Z,8.45
2017-02-22T02:57:39.940Z,8.44
2017-02-22T02:58:39.953Z,8.48
2017-02-22T02:59:39.957Z,8.49
2017-02-22T03:00:39.969Z,8.44
2017-02-22T03:01:39.993Z,8.51
2017-02-22T03:02:39.994Z,8.51
2017-02-22T03:03:40.036Z,8.51
2017-02-22T03:04:40.023Z,8.52
2017-02-22T03:05:40.038Z,8.49
2017-02-22T03:06:40.050Z,8.51
2017-02-22T03:07:39.678Z,8.51
2017-02-22T03:08:40.077Z,8.49
2017-02-22T03:09:40.108Z,8.53
2017-02-22T03:10:40.117Z,8.6
2017-02-22T03:11:40.126Z,8.52
2017-02-22T03:12:40.140Z,8.52
2017-02-22T03:13:40.165Z,8.55
2017-02-22T03:14:40.168Z,8.55
2017-02-22T03:15:40.228Z,8.53
2017-02-22T03:16:40.195Z,8.48
2017-02-22T03:17:40.213Z,8.53
2017-02-22T03:18:40.213Z,8.53
2017-02-22T03:19:40.232Z,8.55
2017-02-22T03:20:40.251Z,8.64
2017-02-22T03:21:40.251Z,8.63
2017-02-22T03:22:40.265Z,8.52
2017-02-22T03:23:40.281Z,8.64
2017-02-22T03:24:40.295Z,8.61
2017-02-22T03:25:40.309Z,8.64
2017-02-22T03:26:40.326Z,8.6
2017-02-22T03:27:40.337Z,8.64
2017-02-22T03:28:40.351Z,8.64
2017-02-22T03:29:40.386Z,8.69
2017-02-22T03:30:40.388Z,8.61
2017-02-22T03:31:40.395Z,8.56
2017-02-22T03:32:40.405Z,8.6
2017-02-22T03:33:40.421Z,8.6
2017-02-22T03:34:40.434Z,8.6
2017-02-22T03:35:40.451Z,8.67
2017-02-22T03:36:40.464Z,8.66
2017-02-22T03:37:40.483Z,8.69
2017-02-22T03:38:40.501Z,8.64
2017-02-22T03:39:40.500Z,8.64
2017-02-22T03:40:40.516Z,8.67
2017-02-22T03:41:40.534Z,8.71
2017-02-22T03:42:40.541Z,8.71
2017-02-22T03:43:40.571Z,8.7
2017-02-22T03:44:40.586Z,8.67
2017-02-22T03:45:40.601Z,8.74
2017-02-22T03:46:40.611Z,8.7
2017-02-22T03:47:40.624Z,8.78
2017-02-22T03:48:40.632Z,8.69
2017-02-22T03:49:40.641Z,8.7
2017-02-22T03:50:40.670Z,8.7
2017-02-22T03:51:40.666Z,8.69
2017-02-22T03:52:40.694Z,8.7
2017-02-22T03:53:40.700Z,8.7
2017-02-22T03:54:40.711Z,8.84
2017-02-22T03:55:40.737Z,8.69
2017-02-22T03:56:40.743Z,8.79
2017-02-22T03:57:40.750Z,8.76
2017-02-22T03:58:40.770Z,8.76
2017-02-22T03:59:40.782Z,8.84
2017-02-22T04:00:40.795Z,8.76
2017-02-22T04:01:40.811Z,8.82
2017-02-22T04:02:40.823Z,8.89
2017-02-22T04:03:40.836Z,8.78
2017-02-22T04:04:40.850Z,8.82
2017-02-22T04:05:40.876Z,8.74
2017-02-22T04:06:40.883Z,8.78
2017-02-22T04:07:40.904Z,8.79
2017-02-22T04:08:40.907Z,8.78
2017-02-22T04:09:40.923Z,8.85
2017-02-22T04:10:40.937Z,8.84
2017-02-22T04:11:40.958Z,8.81
2017-02-22T04:12:40.964Z,8.76
2017-02-22T04:13:40.983Z,8.81
2017-02-22T04:14:40.995Z,8.76
2017-02-22T04:15:41.011Z,8.76
2017-02-22T04:16:41.023Z,8.79
2017-02-22T04:17:41.041Z,8.89
2017-02-22T04:18:41.052Z,8.89
2017-02-22T04:19:41.063Z,8.92
2017-02-22T04:20:41.079Z,8.88
2017-02-22T04:21:40.715Z,8.94
2017-02-22T04:22:41.118Z,8.87
2017-02-22T04:23:41.130Z,8.94
2017-02-22T04:24:41.143Z,8.89
2017-02-22T04:25:41.162Z,8.92
2017-02-22T04:26:41.179Z,8.87
2017-02-22T04:27:41.175Z,8.87
2017-02-22T04:28:41.198Z,8.88
2017-02-22T04:29:41.204Z,8.85
2017-02-22T04:30:41.225Z,8.88
2017-02-22T04:31:41.230Z,8.89
2017-02-22T04:32:41.245Z,8.95
2017-02-22T04:33:41.262Z,8.88
2017-02-22T04:34:41.302Z,8.89
2017-02-22T04:35:41.285Z,8.87
2017-02-22T04:36:41.308Z,8.92
2017-02-22T04:37:41.425Z,8.88
2017-02-22T04:38:40.933Z,8.91
2017-02-22T04:39:41.355Z,8.92
2017-02-22T04:40:41.360Z,8.92
2017-02-22T04:41:41.371Z,8.88
2017-02-22T04:42:41.390Z,8.95
2017-02-22T04:43:41.016Z,8.88
2017-02-22T04:44:41.414Z,8.87
2017-02-22T04:45:41.438Z,8.95
2017-02-22T04:46:41.448Z,8.99
2017-02-22T04:47:41.454Z,8.99
2017-02-22T04:48:41.515Z,8.94
2017-02-22T04:49:41.497Z,8.95
2017-02-22T04:50:41.513Z,8.99
2017-02-22T04:51:41.520Z,9
2017-02-22T04:52:41.532Z,9.02
2017-02-22T04:53:41.553Z,9
2017-02-22T04:54:41.562Z,8.94
2017-02-22T04:55:41.170Z,8.97
2017-02-22T04:56:41.600Z,8.95
2017-02-22T04:57:41.606Z,9.08
2017-02-22T04:58:41.612Z,9.1
2017-02-22T04:59:41.629Z,9.1
2017-02-22T05:00:41.641Z,9.14
2017-02-22T05:01:41.670Z,9.08
2017-02-22T05:02:41.682Z,9.06
2017-02-22T05:03:41.679Z,9.11
2017-02-22T05:04:41.709Z,9.11
2017-02-22T05:05:41.719Z,9.11
2017-02-22T05:06:41.750Z,9.16
2017-02-22T05:07:41.760Z,9.14
2017-02-22T05:08:41.777Z,9.11
2017-02-22T05:09:41.773Z,9.1
2017-02-22T05:10:41.787Z,9.19
2017-02-22T05:11:41.801Z,9.14
2017-02-22T05:12:41.809Z,9.23
2017-02-22T05:13:41.824Z,9.21
2017-02-22T05:14:41.850Z,9.25
2017-02-22T05:15:41.861Z,9.25
2017-02-22T05:16:41.869Z,9.28
2017-02-22T05:17:41.881Z,9.26
2017-02-22T05:18:41.919Z,9.22
2017-02-22T05:19:41.925Z,9.28
2017-02-22T05:20:41.924Z,9.36
2017-02-22T05:21:41.936Z,9.26
2017-02-22T05:22:41.967Z,9.37
2017-02-22T05:23:41.971Z,9.36
2017-02-22T05:24:41.992Z,9.39
2017-02-22T05:25:41.993Z,9.4
2017-02-22T05:26:42.021Z,9.4
2017-02-22T05:27:42.026Z,9.39
2017-02-22T05:28:42.052Z,9.41
2017-02-22T05:29:42.055Z,9.46
2017-02-22T05:30:42.065Z,9.44
2017-02-22T05:31:42.085Z,9.44
2017-02-22T05:32:42.090Z,9.44
2017-02-22T05:33:42.115Z,9.43
2017-02-22T05:34:42.124Z,9.51
2017-02-22T05:35:42.136Z,9.55
2017-02-22T05:36:42.179Z,9.61
2017-02-22T05:37:42.265Z,9.47
2017-02-22T05:38:42.264Z,9.51
2017-02-22T05:39:42.209Z,9.54
2017-02-22T05:40:42.213Z,9.59
2017-02-22T05:41:42.219Z,9.58
2017-02-22T05:42:42.240Z,9.55
2017-02-22T05:43:42.265Z,9.56
2017-02-22T05:44:42.268Z,9.68
2017-02-22T05:45:42.278Z,9.68
2017-02-22T05:46:42.297Z,9.68
2017-02-22T05:47:42.327Z,9.69
2017-02-22T05:48:42.329Z,9.73
2017-02-22T05:49:42.339Z,9.68
2017-02-22T05:50:42.559Z,9.69
2017-02-22T05:51:42.396Z,9.72
2017-02-22T05:52:42.381Z,9.69
2017-02-22T05:53:42.400Z,9.79
2017-02-22T05:54:42.416Z,9.65
2017-02-22T05:55:42.430Z,9.64
2017-02-22T05:56:42.463Z,9.83
2017-02-22T05:57:42.455Z,9.8
2017-02-22T05:58:42.471Z,9.79
2017-02-22T05:59:42.483Z,9.73
2017-02-22T06:00:42.505Z,9.76
2017-02-22T06:01:42.523Z,9.79
2017-02-22T06:02:42.533Z,9.77
2017-02-22T06:03:42.614Z,9.77
2017-02-22T06:04:42.565Z,9.8
2017-02-22T06:05:42.592Z,9.79
2017-02-22T06:06:42.587Z,9.79
2017-02-22T06:07:42.605Z,9.82
2017-02-22T06:08:42.620Z,9.87
2017-02-22T06:09:42.637Z,9.82
2017-02-22T06:10:42.777Z,9.92
2017-02-22T06:11:42.771Z,9.97
2017-02-22T06:12:42.787Z,9.87
2017-02-22T06:13:42.294Z,9.97
2017-02-22T06:14:42.726Z,9.94
2017-02-22T06:15:42.723Z,9.95
2017-02-22T06:16:42.731Z,9.89
2017-02-22T06:17:42.744Z,9.98
2017-02-22T06:18:42.782Z,9.92
2017-02-22T06:19:42.795Z,9.94
2017-02-22T06:20:42.794Z,9.95
2017-02-22T06:21:42.804Z,9.95
2017-02-22T06:22:42.837Z,9.97
2017-02-22T06:23:42.844Z,9.95
2017-02-22T06:24:42.858Z,9.97
2017-02-22T06:25:42.869Z,9.97
2017-02-22T06:26:42.880Z,9.99
2017-02-22T06:27:42.896Z,9.95
2017-02-22T06:28:42.917Z,10.07
2017-02-22T06:29:42.938Z,10.1
2017-02-22T06:30:43.001Z,10.02
2017-02-22T06:31:42.958Z,10.12
2017-02-22T06:32:42.982Z,10.12
2017-02-22T06:33:42.987Z,10.1
2017-02-22T06:34:43.010Z,10.17
2017-02-22T06:35:43.018Z,10.16
2017-02-22T06:36:43.084Z,10.16
2017-02-22T06:37:43.047Z,10.15
2017-02-22T06:38:43.092Z,10.15
2017-02-22T06:39:43.074Z,10.2
2017-02-22T06:40:43.196Z,10.22
2017-02-22T06:41:43.099Z,10.17
2017-02-22T06:42:43.128Z,10.22
2017-02-22T06:43:43.130Z,10.2
2017-02-22T06:44:43.157Z,10.25
2017-02-22T06:45:43.167Z,10.25
2017-02-22T06:46:43.179Z,10.25
2017-02-22T06:47:43.193Z,10.25
2017-02-22T06:48:43.223Z,10.26
2017-02-22T06:49:43.220Z,10.28
2017-02-22T06:50:43.232Z,10.35
2017-02-22T06:51:43.258Z,10.37
2017-02-22T06:52:43.261Z,10.35
2017-02-22T06:53:43.296Z,10.26
2017-02-22T06:54:43.297Z,10.33
2017-02-22T06:55:43.313Z,10.37
2017-02-22T06:56:43.349Z,10.37
2017-02-22T06:57:43.346Z,10.37
2017-02-22T06:58:43.365Z,10.41
2017-02-22T06:59:43.364Z,10.4
2017-02-22T07:00:43.393Z,10.42
2017-02-22T07:01:43.404Z,10.46
2017-02-22T07:02:43.421Z,10.44
2017-02-22T07:03:43.433Z,10.49
2017-02-22T07:04:43.441Z,10.57
2017-02-22T07:05:43.461Z,10.57
2017-02-22T07:06:43.472Z,10.54
2017-02-22T07:07:43.602Z,10.56
2017-02-22T07:08:43.612Z,10.63
2017-02-22T07:09:43.594Z,10.64
2017-02-22T07:10:43.552Z,10.61
2017-02-22T07:11:43.573Z,10.6
2017-02-22T07:12:43.192Z,10.69
2017-02-22T07:13:43.589Z,10.64
2017-02-22T07:14:43.602Z,10.68
2017-02-22T07:15:43.638Z,10.68
2017-02-22T07:16:43.632Z,10.74
2017-02-22T07:17:43.642Z,10.74
2017-02-22T07:18:43.659Z,10.71
2017-02-22T07:19:43.697Z,10.82
2017-02-22T07:20:43.795Z,10.81
2017-02-22T07:21:43.705Z,10.75
2017-02-22T07:22:43.766Z,10.72
2017-02-22T07:23:43.775Z,10.72
2017-02-22T07:24:43.795Z,10.81
2017-02-22T07:25:43.372Z,10.84
2017-02-22T07:26:43.813Z,10.79
2017-02-22T07:27:43.812Z,10.82
2017-02-22T07:28:43.822Z,10.82
2017-02-22T07:29:43.849Z,10.9
2017-02-22T07:30:43.447Z,10.86
2017-02-22T07:31:43.475Z,10.9
2017-02-22T07:32:43.492Z,10.87
2017-02-22T07:33:43.502Z,10.82
2017-02-22T07:34:43.940Z,10.87
2017-02-22T07:35:43.637Z,10.89
2017-02-22T07:36:43.947Z,10.9
2017-02-22T07:37:43.988Z,10.89
2017-02-22T07:38:43.967Z,10.93
2017-02-22T07:39:43.980Z,10.94
2017-02-22T07:40:43.999Z,10.9
2017-02-22T07:41:44.081Z,10.93
2017-02-22T07:42:44.082Z,10.96
2017-02-22T07:43:44.044Z,10.94
2017-02-22T07:44:44.061Z,10.97
2017-02-22T07:45:44.076Z,11
2017-02-22T07:46:44.098Z,10.99
2017-02-22T07:47:44.136Z,10.92
2017-02-22T07:48:44.136Z,10.96
2017-02-22T07:49:44.146Z,10.94
2017-02-22T07:50:44.161Z,11.02
2017-02-22T07:51:44.212Z,11.05
2017-02-22T07:52:44.189Z,11
2017-02-22T07:53:44.201Z,10.96
2017-02-22T07:54:44.219Z,10.99
2017-02-22T07:55:44.236Z,10.99
2017-02-22T07:56:44.365Z,10.94
2017-02-22T07:57:44.421Z,11.02
2017-02-22T07:58:44.405Z,10.94
2017-02-22T07:59:44.429Z,11
2017-02-22T08:00:44.318Z,11.08
2017-02-22T08:01:44.389Z,11.1
2017-02-22T08:02:44.342Z,11.05
2017-02-22T08:03:43.959Z,10.99
2017-02-22T08:04:44.374Z,11.08
2017-02-22T08:05:44.386Z,11.07
2017-02-22T08:06:44.404Z,11.05
2017-02-22T08:07:44.433Z,11.11
2017-02-22T08:08:44.432Z,11.08
2017-02-22T08:09:44.450Z,11.15
2017-02-22T08:10:44.469Z,11.17
2017-02-22T08:11:44.490Z,11.18
2017-02-22T08:12:44.501Z,11.15
2017-02-22T08:13:44.133Z,11.19
2017-02-22T08:14:44.643Z,11.15
2017-02-22T08:15:44.748Z,11.19
2017-02-22T08:16:44.277Z,11.22
2017-02-22T08:17:44.588Z,11.23
2017-02-22T08:18:44.748Z,11.26
2017-02-22T08:19:44.735Z,11.25
2017-02-22T08:20:44.722Z,11.27
2017-02-22T08:21:44.444Z,11.33
2017-02-22T08:22:44.750Z,11.3
2017-02-22T08:23:44.783Z,11.35
2017-02-22T08:24:44.713Z,11.36
2017-02-22T08:25:44.710Z,11.37
2017-02-22T08:26:44.335Z,11.4
2017-02-22T08:27:44.779Z,11.45
2017-02-22T08:28:44.770Z,11.4
2017-02-22T08:29:44.777Z,11.47
2017-02-22T08:30:44.984Z,11.47
2017-02-22T08:31:44.913Z,11.43
2017-02-22T08:32:44.818Z,11.48
2017-02-22T08:33:44.831Z,11.44
2017-02-22T08:34:44.451Z,11.48
2017-02-22T08:35:44.957Z,11.52
2017-02-22T08:36:44.965Z,11.47
2017-02-22T08:37:44.517Z,11.45
2017-02-22T08:38:44.514Z,11.47
2017-02-22T08:39:44.993Z,11.55
2017-02-22T08:40:44.991Z,11.44
2017-02-22T08:41:44.967Z,11.47
2017-02-22T08:42:44.974Z,11.47
2017-02-22T08:43:45.018Z,11.47
2017-02-22T08:44:45.045Z,11.52
2017-02-22T08:45:45.024Z,11.55
2017-02-22T08:46:45.039Z,11.57
2017-02-22T08:47:45.063Z,11.52
2017-02-22T08:48:44.699Z,11.52
2017-02-22T08:49:45.106Z,11.6
2017-02-22T08:50:44.313Z,11.62
2017-02-22T08:51:45.159Z,11.63
2017-02-22T08:52:44.739Z,11.57
2017-02-22T08:53:44.884Z,11.6
2017-02-22T08:54:45.187Z,11.59
2017-02-22T08:55:45.197Z,11.63
2017-02-22T08:56:45.198Z,11.66
2017-02-22T08:57:45.238Z,11.65
2017-02-22T08:58:45.239Z,11.65
2017-02-22T08:59:45.255Z,11.7
2017-02-22T09:00:45.262Z,11.7
2017-02-22T09:01:45.297Z,11.69
2017-02-22T09:02:45.304Z,11.66
2017-02-22T09:03:45.502Z,11.7
2017-02-22T09:04:45.326Z,11.69
2017-02-22T09:05:45.350Z,11.69
2017-02-22T09:06:45.368Z,11.77
2017-02-22T09:07:45.383Z,11.8
2017-02-22T09:08:45.110Z,11.77
2017-02-22T09:09:45.495Z,11.78
2017-02-22T09:10:45.495Z,11.78
2017-02-22T09:11:45.524Z,11.75
2017-02-22T09:12:45.463Z,11.8
2017-02-22T09:13:45.096Z,11.73
2017-02-22T09:14:45.129Z,11.69
2017-02-22T09:15:45.126Z,11.77
2017-02-22T09:16:45.141Z,11.72
2017-02-22T09:17:45.153Z,11.84
2017-02-22T09:18:45.164Z,11.84
2017-02-22T09:19:45.217Z,11.88
2017-02-22T09:20:45.215Z,11.9
2017-02-22T09:21:45.644Z,11.91
2017-02-22T09:22:45.651Z,11.9
2017-02-22T09:23:45.666Z,11.91
2017-02-22T09:24:45.265Z,11.86
2017-02-22T09:25:45.739Z,11.88
2017-02-22T09:26:45.417Z,11.9
2017-02-22T09:27:45.709Z,11.91
2017-02-22T09:28:45.836Z,12.02
2017-02-22T09:29:45.340Z,11.97
2017-02-22T09:30:45.759Z,11.99
2017-02-22T09:31:45.885Z,12.06
2017-02-22T09:32:45.788Z,11.97
2017-02-22T09:33:45.805Z,12.1
2017-02-22T09:34:45.838Z,12.06
2017-02-22T09:35:45.850Z,12.1
2017-02-22T09:36:45.861Z,12.04
2017-02-22T09:37:45.885Z,12.06
2017-02-22T09:38:45.891Z,12.17
2017-02-22T09:39:45.989Z,12.17
2017-02-22T09:40:46.006Z,12.2
2017-02-22T09:41:45.952Z,12.17
2017-02-22T09:42:46.049Z,12.13
2017-02-22T09:43:45.996Z,12.22
2017-02-22T09:44:45.999Z,12.21
2017-02-22T09:45:46.026Z,12.2
2017-02-22T09:46:46.020Z,12.13
2017-02-22T09:47:46.036Z,12.17
2017-02-22T09:48:46.053Z,12.15
2017-02-22T09:49:46.073Z,12.21
2017-02-22T09:50:46.110Z,12.22
2017-02-22T09:51:46.111Z,12.17
2017-02-22T09:52:45.837Z,12.21
2017-02-22T09:53:46.135Z,12.22
2017-02-22T09:54:46.265Z,12.21
2017-02-22T09:55:46.302Z,12.29
2017-02-22T09:56:46.193Z,12.21
2017-02-22T09:57:46.202Z,12.29
2017-02-22T09:58:46.228Z,12.2
2017-02-22T09:59:46.243Z,12.25
2017-02-22T10:00:46.263Z,12.25
2017-02-22T10:01:46.383Z,12.28
2017-02-22T10:02:46.285Z,12.22
2017-02-22T10:03:46.300Z,12.32
2017-02-22T10:04:46.325Z,12.29
2017-02-22T10:05:46.443Z,12.27
2017-02-22T10:06:46.354Z,12.29
2017-02-22T10:07:46.378Z,12.24
2017-02-22T10:08:46.391Z,12.25
2017-02-22T10:09:46.501Z,12.24
2017-02-22T10:10:46.510Z,12.28
2017-02-22T10:11:46.455Z,12.27
2017-02-22T10:12:46.447Z,12.28
2017-02-22T10:13:46.467Z,12.29
2017-02-22T10:14:46.489Z,12.24
2017-02-22T10:15:46.214Z,12.22
2017-02-22T10:16:46.540Z,12.27
2017-02-22T10:17:46.622Z,12.24
2017-02-22T10:18:46.552Z,12.27
2017-02-22T10:19:46.567Z,12.36
2017-02-22T10:20:46.585Z,12.35
2017-02-22T10:21:46.211Z,12.29
2017-02-22T10:22:46.630Z,12.29
2017-02-22T10:23:46.633Z,12.29
2017-02-22T10:24:46.650Z,12.28
2017-02-22T10:25:46.671Z,12.28
2017-02-22T10:26:46.414Z,12.36
2017-02-22T10:27:46.718Z,12.37
2017-02-22T10:28:46.726Z,12.35
2017-02-22T10:29:46.747Z,12.4
2017-02-22T10:30:46.560Z,12.46
2017-02-22T10:31:46.817Z,12.42
2017-02-22T10:32:46.392Z,12.4
2017-02-22T10:33:46.903Z,12.53
2017-02-22T10:34:46.837Z,12.5
2017-02-22T10:35:46.837Z,12.47
2017-02-22T10:36:46.865Z,12.6
2017-02-22T10:37:46.879Z,12.67
2017-02-22T10:38:46.905Z,12.62
2017-02-22T10:39:46.909Z,12.64
2017-02-22T10:40:46.930Z,12.72
2017-02-22T10:41:46.954Z,12.72
2017-02-22T10:42:46.971Z,12.7
2017-02-22T10:43:46.974Z,12.8
2017-02-22T10:44:47.007Z,12.86
2017-02-22T10:45:47.007Z,12.75
2017-02-22T10:46:47.033Z,12.85
2017-02-22T10:47:47.043Z,12.76
2017-02-22T10:48:47.069Z,12.82
2017-02-22T10:49:47.187Z,12.8
2017-02-22T10:50:47.111Z,12.86
2017-02-22T10:51:47.167Z,12.83
2017-02-22T10:52:47.245Z,12.8
2017-02-22T10:53:47.159Z,12.83
2017-02-22T10:54:47.171Z,12.82
2017-02-22T10:55:47.187Z,12.8
2017-02-22T10:56:46.806Z,12.85
2017-02-22T10:57:47.220Z,12.94
2017-02-22T10:58:46.837Z,12.91
2017-02-22T10:59:47.254Z,12.85
2017-02-22T11:00:47.264Z,12.87
2017-02-22T11:01:47.284Z,12.85
2017-02-22T11:02:46.908Z,12.85
2017-02-22T11:03:47.314Z,12.86
2017-02-22T11:04:47.356Z,12.91
2017-02-22T11:05:47.360Z,12.87
2017-02-22T11:06:47.377Z,12.82
2017-02-22T11:07:47.392Z,12.86
2017-02-22T11:08:47.402Z,12.91
2017-02-22T11:09:47.481Z,12.95
2017-02-22T11:10:47.457Z,12.97
2017-02-22T11:11:47.462Z,12.9
2017-02-22T11:12:47.593Z,12.9
2017-02-22T11:13:47.098Z,12.9
2017-02-22T11:14:47.615Z,13
2017-02-22T11:15:47.131Z,12.9
2017-02-22T11:16:47.544Z,12.97
2017-02-22T11:17:47.667Z,13
2017-02-22T11:18:47.580Z,12.95
2017-02-22T11:19:47.598Z,12.97
2017-02-22T11:20:47.778Z,13.01
2017-02-22T11:21:47.632Z,13
2017-02-22T11:22:47.256Z,12.98
2017-02-22T11:23:47.685Z,13.03
2017-02-22T11:24:47.287Z,13
2017-02-22T11:25:47.806Z,13.01
2017-02-22T11:26:47.438Z,13.04
2017-02-22T11:27:47.522Z,13.04
2017-02-22T11:28:47.355Z,12.98
2017-02-22T11:29:47.883Z,13.04
2017-02-22T11:30:47.391Z,13.05
2017-02-22T11:31:47.922Z,13.04
2017-02-22T11:32:47.830Z,13.09
2017-02-22T11:33:47.449Z,13.13
2017-02-22T11:34:47.584Z,13.12
2017-02-22T11:35:47.474Z,13.12
2017-02-22T11:36:47.887Z,12.98
2017-02-22T11:37:47.909Z,13.08
2017-02-22T11:38:47.528Z,13.04
2017-02-22T11:39:47.285Z,13
2017-02-22T11:40:48.076Z,13.11
2017-02-22T11:41:47.981Z,13.05
2017-02-22T11:42:47.599Z,13.09
2017-02-22T11:43:48.029Z,13.09
2017-02-22T11:44:47.354Z,13.08
2017-02-22T11:45:47.667Z,13.03
2017-02-22T11:46:48.076Z,12.98
2017-02-22T11:47:48.076Z,13.08
2017-02-22T11:48:48.105Z,13.09
2017-02-22T11:49:48.127Z,13.09
2017-02-22T11:50:48.138Z,13.05
2017-02-22T11:51:48.165Z,13.05
2017-02-22T11:52:48.185Z,13.08
2017-02-22T11:53:48.185Z,13.12
2017-02-22T11:54:48.209Z,13.08
2017-02-22T11:55:48.239Z,13.08
2017-02-22T11:56:47.458Z,13.08
2017-02-22T11:57:48.260Z,13.13
2017-02-22T11:58:48.350Z,13.01
2017-02-22T11:59:48.374Z,13.13
2017-02-22T12:00:48.381Z,13.03
2017-02-22T12:01:48.440Z,13.04
2017-02-22T12:02:48.462Z,13.03
2017-02-22T12:03:48.465Z,13.03
2017-02-22T12:04:48.472Z,13.05
2017-02-22T12:05:48.487Z,13.04
2017-02-22T12:06:48.207Z,13.15
2017-02-22T12:07:48.665Z,13.16
2017-02-22T12:08:48.671Z,13.08
2017-02-22T12:09:48.287Z,13.04
2017-02-22T12:10:48.576Z,13.04
2017-02-22T12:11:48.344Z,13.01
2017-02-22T12:12:48.344Z,13.04
2017-02-22T12:13:48.646Z,13.03
2017-02-22T12:14:48.354Z,13.13
2017-02-22T12:15:48.358Z,13.01
2017-02-22T12:16:48.619Z,13.04
2017-02-22T12:17:48.633Z,13.13
2017-02-22T12:18:48.625Z,13.03
2017-02-22T12:19:48.642Z,13.04
2017-02-22T12:20:48.656Z,13.16
2017-02-22T12:21:48.703Z,13.13
2017-02-22T12:22:48.696Z,13.15
2017-02-22T12:23:48.342Z,13.04
2017-02-22T12:24:48.347Z,13.19
2017-02-22T12:25:48.355Z,13.15
2017-02-22T12:26:48.779Z,13.18
2017-02-22T12:27:48.786Z,13.08
2017-02-22T12:28:48.419Z,13.16
2017-02-22T12:29:48.823Z,13.13
2017-02-22T12:30:48.874Z,13.18
2017-02-22T12:31:48.860Z,13.16
2017-02-22T12:32:48.877Z,13.15
2017-02-22T12:33:48.503Z,13.13
2017-02-22T12:34:48.917Z,13.2
2017-02-22T12:35:48.927Z,13.28
2017-02-22T12:36:48.949Z,13.23
2017-02-22T12:37:48.567Z,13.22
2017-02-22T12:38:48.997Z,13.28
2017-02-22T12:39:49.062Z,13.2
2017-02-22T12:40:49.019Z,13.19
2017-02-22T12:41:49.075Z,13.16
2017-02-22T12:42:49.052Z,13.23
2017-02-22T12:43:49.086Z,13.2
2017-02-22T12:44:49.088Z,13.23
2017-02-22T12:45:49.125Z,13.19
2017-02-22T12:46:49.129Z,13.22
2017-02-22T12:47:49.152Z,13.2
2017-02-22T12:48:49.161Z,13.27
2017-02-22T12:49:49.172Z,13.31
2017-02-22T12:50:49.207Z,13.19
2017-02-22T12:51:49.327Z,13.27
2017-02-22T12:52:49.247Z,13.22
2017-02-22T12:53:49.249Z,13.31
2017-02-22T12:54:49.280Z,13.16
2017-02-22T12:55:49.290Z,13.31
2017-02-22T12:56:49.304Z,13.27
2017-02-22T12:57:49.320Z,13.23
2017-02-22T12:58:49.343Z,13.27
2017-02-22T12:59:48.965Z,13.31
2017-02-22T13:00:48.984Z,13.35
2017-02-22T13:01:49.004Z,13.31
2017-02-22T13:02:49.409Z,13.3
2017-02-22T13:03:49.425Z,13.33
2017-02-22T13:04:49.437Z,13.39
2017-02-22T13:05:49.081Z,13.46
2017-02-22T13:06:49.489Z,13.41
2017-02-22T13:07:49.618Z,13.42
2017-02-22T13:08:49.546Z,13.49
2017-02-22T13:09:49.307Z,13.47